sensor_id;sensor_type;location;lat;lon;timestamp;pressure;altitude;pressure_sealevel;temperature;humidity
21980;BME280;11154;48.558;9.234;2023-03-21T00:01:25;97752.50;;;13.35;69.70
21980;BME280;11154;48.558;9.234;2023-03-21T00:03:26;97754.13;;;13.36;69.85
21980;BME280;11154;48.558;9.234;2023-03-21T00:05:28;97752.13;;;13.38;69.47
21980;BME280;11154;48.558;9.234;2023-03-21T00:07:30;97745.78;;;13.39;69.09
21980;BME280;11154;48.558;9.234;2023-03-21T00:09:31;97743.94;;;13.39;68.99
21980;BME280;11154;48.558;9.234;2023-03-21T00:11:33;97745.59;;;13.40;69.16
21980;BME280;11154;48.558;9.234;2023-03-21T00:13:35;97743.59;;;13.42;69.23
21980;BME280;11154;48.558;9.234;2023-03-21T00:15:39;97738.94;;;13.44;69.18
21980;BME280;11154;48.558;9.234;2023-03-21T00:17:49;97739.06;;;13.43;69.01
21980;BME280;11154;48.558;9.234;2023-03-21T00:19:52;97727.75;;;13.41;69.20
21980;BME280;11154;48.558;9.234;2023-03-21T00:21:54;97731.06;;;13.43;68.43
21980;BME280;11154;48.558;9.234;2023-03-21T00:23:55;97738.25;;;13.42;68.63
21980;BME280;11154;48.558;9.234;2023-03-21T00:25:58;97734.91;;;13.40;69.00
21980;BME280;11154;48.558;9.234;2023-03-21T00:28:00;97735.91;;;13.39;70.08
21980;BME280;11154;48.558;9.234;2023-03-21T00:30:01;97728.09;;;13.38;72.88
21980;BME280;11154;48.558;9.234;2023-03-21T00:32:04;97730.28;;;13.34;71.62
21980;BME280;11154;48.558;9.234;2023-03-21T00:34:06;97723.44;;;13.32;71.70
21980;BME280;11154;48.558;9.234;2023-03-21T00:36:14;97726.28;;;13.30;71.90
21980;BME280;11154;48.558;9.234;2023-03-21T00:38:16;97725.63;;;13.28;71.74
21980;BME280;11154;48.558;9.234;2023-03-21T00:40:18;97723.47;;;13.24;72.39
21980;BME280;11154;48.558;9.234;2023-03-21T00:42:20;97724.66;;;13.21;72.72
21980;BME280;11154;48.558;9.234;2023-03-21T00:44:22;97723.16;;;13.19;73.03
21980;BME280;11154;48.558;9.234;2023-03-21T00:46:24;97712.66;;;13.17;73.92
21980;BME280;11154;48.558;9.234;2023-03-21T00:48:28;97711.81;;;13.17;74.21
21980;BME280;11154;48.558;9.234;2023-03-21T00:50:30;97714.66;;;13.15;73.99
21980;BME280;11154;48.558;9.234;2023-03-21T00:52:33;97707.16;;;13.11;74.14
21980;BME280;11154;48.558;9.234;2023-03-21T00:54:36;97707.16;;;13.11;75.08
21980;BME280;11154;48.558;9.234;2023-03-21T00:56:38;97710.00;;;13.09;75.57
21980;BME280;11154;48.558;9.234;2023-03-21T00:58:39;97706.84;;;13.06;76.16
21980;BME280;11154;48.558;9.234;2023-03-21T01:00:41;97701.00;;;13.02;75.35
21980;BME280;11154;48.558;9.234;2023-03-21T01:02:43;97695.84;;;13.01;75.07
21980;BME280;11154;48.558;9.234;2023-03-21T01:04:57;97697.53;;;13.02;74.92
21980;BME280;11154;48.558;9.234;2023-03-21T01:06:59;97692.50;;;13.07;74.72
21980;BME280;11154;48.558;9.234;2023-03-21T01:09:00;97693.81;;;13.11;74.52
21980;BME280;11154;48.558;9.234;2023-03-21T01:11:05;97699.16;;;13.11;74.66
21980;BME280;11154;48.558;9.234;2023-03-21T01:13:07;97693.81;;;13.11;74.60
21980;BME280;11154;48.558;9.234;2023-03-21T01:15:09;97698.16;;;13.12;74.81
21980;BME280;11154;48.558;9.234;2023-03-21T01:17:11;97702.31;;;13.14;74.46
21980;BME280;11154;48.558;9.234;2023-03-21T01:19:15;97702.31;;;13.14;74.63
21980;BME280;11154;48.558;9.234;2023-03-21T01:21:19;97702.50;;;13.13;74.80
21980;BME280;11154;48.558;9.234;2023-03-21T01:23:21;97701.81;;;13.11;75.14
21980;BME280;11154;48.558;9.234;2023-03-21T01:25:23;97696.84;;;13.08;73.86
21980;BME280;11154;48.558;9.234;2023-03-21T01:27:24;97698.84;;;13.06;74.58
21980;BME280;11154;48.558;9.234;2023-03-21T01:29:26;97697.16;;;13.05;74.39
21980;BME280;11154;48.558;9.234;2023-03-21T01:31:28;97693.69;;;13.04;74.80
21980;BME280;11154;48.558;9.234;2023-03-21T01:33:31;97695.50;;;13.04;74.20
21980;BME280;11154;48.558;9.234;2023-03-21T01:35:35;97690.81;;;13.06;75.08
21980;BME280;11154;48.558;9.234;2023-03-21T01:37:38;97699.19;;;13.03;74.79
21980;BME280;11154;48.558;9.234;2023-03-21T01:39:40;97697.34;;;13.03;75.13
21980;BME280;11154;48.558;9.234;2023-03-21T01:41:42;97684.81;;;13.04;74.02
21980;BME280;11154;48.558;9.234;2023-03-21T01:43:43;97689.34;;;13.03;74.63
21980;BME280;11154;48.558;9.234;2023-03-21T01:46:19;97694.19;;;13.00;74.29
21980;BME280;11154;48.558;9.234;2023-03-21T01:48:22;97695.69;;;12.95;74.28
21980;BME280;11154;48.558;9.234;2023-03-21T01:50:24;97681.88;;;12.91;74.69
21980;BME280;11154;48.558;9.234;2023-03-21T01:52:29;97682.03;;;12.90;74.91
21980;BME280;11154;48.558;9.234;2023-03-21T01:54:36;97680.69;;;12.94;75.76
21980;BME280;11154;48.558;9.234;2023-03-21T01:56:39;97680.53;;;12.95;76.38
21980;BME280;11154;48.558;9.234;2023-03-21T01:58:43;97682.53;;;12.93;75.25
21980;BME280;11154;48.558;9.234;2023-03-21T02:00:46;97646.31;;;12.21;77.67
21980;BME280;11154;48.558;9.234;2023-03-21T02:02:50;97644.56;;;11.40;83.08
21980;BME280;11154;48.558;9.234;2023-03-21T02:04:54;97642.69;;;11.09;86.01
21980;BME280;11154;48.558;9.234;2023-03-21T02:06:59;97636.47;;;10.92;87.93
21980;BME280;11154;48.558;9.234;2023-03-21T02:09:07;97643.56;;;10.84;88.08
21980;BME280;11154;48.558;9.234;2023-03-21T02:11:11;97638.88;;;10.70;88.64
21980;BME280;11154;48.558;9.234;2023-03-21T02:13:14;97636.03;;;10.72;89.45
21980;BME280;11154;48.558;9.234;2023-03-21T02:15:15;97635.34;;;10.70;89.61
21980;BME280;11154;48.558;9.234;2023-03-21T02:17:22;97629.38;;;10.68;91.38
21980;BME280;11154;48.558;9.234;2023-03-21T02:22:25;97636.81;;;10.56;91.91
21980;BME280;11154;48.558;9.234;2023-03-21T02:24:48;97628.13;;;10.54;92.97
21980;BME280;11154;48.558;9.234;2023-03-21T02:27:03;97628.47;;;10.51;93.29
21980;BME280;11154;48.558;9.234;2023-03-21T02:29:18;97626.63;;;10.52;93.38
21980;BME280;11154;48.558;9.234;2023-03-21T02:31:39;97621.28;;;10.44;93.47
21980;BME280;11154;48.558;9.234;2023-03-21T02:36:56;97620.22;;;10.37;94.34
21980;BME280;11154;48.558;9.234;2023-03-21T02:39:05;97619.25;;;10.38;95.06
21980;BME280;11154;48.558;9.234;2023-03-21T02:41:15;97615.59;;;10.39;95.18
21980;BME280;11154;48.558;9.234;2023-03-21T02:43:23;97620.22;;;10.37;95.01
21980;BME280;11154;48.558;9.234;2023-03-21T02:45:31;97616.28;;;10.41;94.76
21980;BME280;11154;48.558;9.234;2023-03-21T02:47:38;97614.78;;;10.38;94.42
21980;BME280;11154;48.558;9.234;2023-03-21T02:49:46;97608.59;;;10.38;93.95
21980;BME280;11154;48.558;9.234;2023-03-21T02:51:49;97610.28;;;10.39;94.12
21980;BME280;11154;48.558;9.234;2023-03-21T02:53:57;97614.09;;;10.36;94.16
21980;BME280;11154;48.558;9.234;2023-03-21T02:56:00;97608.31;;;10.41;94.49
21980;BME280;11154;48.558;9.234;2023-03-21T02:58:03;97609.97;;;10.42;93.73
21980;BME280;11154;48.558;9.234;2023-03-21T03:00:08;97610.50;;;10.45;93.35
21980;BME280;11154;48.558;9.234;2023-03-21T03:02:12;97610.97;;;10.41;93.26
21980;BME280;11154;48.558;9.234;2023-03-21T03:04:18;97610.34;;;10.47;92.96
21980;BME280;11154;48.558;9.234;2023-03-21T03:06:23;97612.00;;;10.48;93.54
21980;BME280;11154;48.558;9.234;2023-03-21T03:08:33;97615.66;;;10.47;93.24
21980;BME280;11154;48.558;9.234;2023-03-21T03:11:05;97614.66;;;10.48;93.44
21980;BME280;11154;48.558;9.234;2023-03-21T03:13:17;97615.66;;;10.47;92.75
21980;BME280;11154;48.558;9.234;2023-03-21T03:15:29;97616.47;;;10.47;93.53
21980;BME280;11154;48.558;9.234;2023-03-21T03:17:49;97619.97;;;10.48;93.65
21980;BME280;11154;48.558;9.234;2023-03-21T03:20:08;97619.28;;;10.46;93.41
21980;BME280;11154;48.558;9.234;2023-03-21T03:22:14;97618.78;;;10.42;93.66
21980;BME280;11154;48.558;9.234;2023-03-21T03:24:24;97612.94;;;10.39;93.66
21980;BME280;11154;48.558;9.234;2023-03-21T03:26:32;97613.47;;;10.42;93.19
21980;BME280;11154;48.558;9.234;2023-03-21T03:28:38;97622.94;;;10.45;92.60
21980;BME280;11154;48.558;9.234;2023-03-21T03:30:42;97613.97;;;10.46;92.69
21980;BME280;11154;48.558;9.234;2023-03-21T03:32:49;97613.34;;;10.52;92.84
21980;BME280;11154;48.558;9.234;2023-03-21T03:34:52;97609.19;;;10.49;93.03
21980;BME280;11154;48.558;9.234;2023-03-21T03:36:58;97613.69;;;10.49;93.22
21980;BME280;11154;48.558;9.234;2023-03-21T03:39:07;97605.03;;;10.47;92.92
21980;BME280;11154;48.558;9.234;2023-03-21T03:41:13;97596.34;;;10.45;93.76
21980;BME280;11154;48.558;9.234;2023-03-21T03:43:20;97596.16;;;10.38;93.39
21980;BME280;11154;48.558;9.234;2023-03-21T03:45:28;97603.28;;;10.38;93.67
21980;BME280;11154;48.558;9.234;2023-03-21T03:47:37;97596.47;;;10.35;93.91
21980;BME280;11154;48.558;9.234;2023-03-21T03:49:45;97594.97;;;10.33;94.03
21980;BME280;11154;48.558;9.234;2023-03-21T03:51:52;97597.09;;;10.29;94.24
21980;BME280;11154;48.558;9.234;2023-03-21T03:53:58;97602.25;;;10.31;94.43
21980;BME280;11154;48.558;9.234;2023-03-21T03:56:03;97593.63;;;10.29;94.03
21980;BME280;11154;48.558;9.234;2023-03-21T03:58:06;97594.63;;;10.28;94.61
21980;BME280;11154;48.558;9.234;2023-03-21T04:00:12;97633.16;;;10.32;94.59
21980;BME280;11154;48.558;9.234;2023-03-21T04:02:14;97637.38;;;11.09;91.56
21980;BME280;11154;48.558;9.234;2023-03-21T04:04:16;97635.28;;;11.44;88.50
21980;BME280;11154;48.558;9.234;2023-03-21T04:06:18;97631.69;;;11.69;85.89
21980;BME280;11154;48.558;9.234;2023-03-21T04:08:21;97626.66;;;11.90;84.88
21980;BME280;11154;48.558;9.234;2023-03-21T04:10:23;97622.53;;;12.03;83.86
21980;BME280;11154;48.558;9.234;2023-03-21T04:12:25;97619.31;;;12.16;82.32
21980;BME280;11154;48.558;9.234;2023-03-21T04:14:26;97615.84;;;12.23;81.73
21980;BME280;11154;48.558;9.234;2023-03-21T04:16:29;97613.13;;;12.31;80.82
21980;BME280;11154;48.558;9.234;2023-03-21T04:18:31;97612.63;;;12.35;80.45
21980;BME280;11154;48.558;9.234;2023-03-21T04:20:33;97616.47;;;12.41;79.96
21980;BME280;11154;48.558;9.234;2023-03-21T04:22:35;97615.59;;;12.48;79.42
21980;BME280;11154;48.558;9.234;2023-03-21T04:24:37;97610.75;;;12.52;78.82
21980;BME280;11154;48.558;9.234;2023-03-21T04:26:39;97614.25;;;12.52;78.73
21980;BME280;11154;48.558;9.234;2023-03-21T04:28:41;97623.75;;;12.55;78.34
21980;BME280;11154;48.558;9.234;2023-03-21T04:30:43;97621.59;;;12.58;78.40
21980;BME280;11154;48.558;9.234;2023-03-21T04:32:46;97618.38;;;12.63;77.94
21980;BME280;11154;48.558;9.234;2023-03-21T04:34:53;97617.22;;;12.65;77.78
21980;BME280;11154;48.558;9.234;2023-03-21T04:36:55;97614.22;;;12.68;77.91
21980;BME280;11154;48.558;9.234;2023-03-21T04:38:56;97616.69;;;12.70;78.07
21980;BME280;11154;48.558;9.234;2023-03-21T04:41:00;97615.88;;;12.69;77.01
21980;BME280;11154;48.558;9.234;2023-03-21T04:43:01;97619.22;;;12.71;77.29
21980;BME280;11154;48.558;9.234;2023-03-21T04:45:04;97614.22;;;12.68;77.86
21980;BME280;11154;48.558;9.234;2023-03-21T04:47:06;97618.38;;;12.71;78.00
21980;BME280;11154;48.558;9.234;2023-03-21T04:49:09;97615.88;;;12.69;78.04
21980;BME280;11154;48.558;9.234;2023-03-21T04:51:11;97621.53;;;12.66;78.04
21980;BME280;11154;48.558;9.234;2023-03-21T04:53:12;97612.41;;;12.61;78.77
21980;BME280;11154;48.558;9.234;2023-03-21T04:55:14;97625.06;;;12.59;78.82
21980;BME280;11154;48.558;9.234;2023-03-21T04:57:16;97622.59;;;12.57;78.72
21980;BME280;11154;48.558;9.234;2023-03-21T04:59:18;97622.91;;;12.54;79.03
21980;BME280;11154;48.558;9.234;2023-03-21T05:01:20;97619.56;;;12.52;78.69
21980;BME280;11154;48.558;9.234;2023-03-21T05:03:22;97622.41;;;12.51;79.12
21980;BME280;11154;48.558;9.234;2023-03-21T05:05:25;97621.94;;;12.47;79.07
21980;BME280;11154;48.558;9.234;2023-03-21T05:07:26;97622.28;;;12.44;79.21
21980;BME280;11154;48.558;9.234;2023-03-21T05:09:30;97612.81;;;12.42;79.11
21980;BME280;11154;48.558;9.234;2023-03-21T05:11:34;97619.31;;;12.39;78.81
21980;BME280;11154;48.558;9.234;2023-03-21T05:13:36;97622.28;;;12.36;78.56
21980;BME280;11154;48.558;9.234;2023-03-21T05:15:38;97620.13;;;12.32;78.17
21980;BME280;11154;48.558;9.234;2023-03-21T05:17:40;97617.47;;;12.32;78.62
21980;BME280;11154;48.558;9.234;2023-03-21T05:19:44;97617.47;;;12.32;78.97
21980;BME280;11154;48.558;9.234;2023-03-21T05:21:47;97621.97;;;12.31;78.44
21980;BME280;11154;48.558;9.234;2023-03-21T05:23:48;97616.97;;;12.28;78.74
21980;BME280;11154;48.558;9.234;2023-03-21T05:25:53;97622.00;;;12.23;78.57
21980;BME280;11154;48.558;9.234;2023-03-21T05:27:55;97621.66;;;12.19;77.30
21980;BME280;11154;48.558;9.234;2023-03-21T05:29:57;97631.84;;;12.15;77.91
21980;BME280;11154;48.558;9.234;2023-03-21T05:31:59;97639.66;;;12.17;78.22
21980;BME280;11154;48.558;9.234;2023-03-21T05:34:01;97633.66;;;12.15;77.88
21980;BME280;11154;48.558;9.234;2023-03-21T05:36:03;97637.34;;;12.14;78.22
21980;BME280;11154;48.558;9.234;2023-03-21T05:38:07;97646.47;;;12.11;77.94
21980;BME280;11154;48.558;9.234;2023-03-21T05:40:09;97642.00;;;12.12;78.26
21980;BME280;11154;48.558;9.234;2023-03-21T05:42:11;97642.00;;;12.12;78.01
21980;BME280;11154;48.558;9.234;2023-03-21T05:44:13;97639.34;;;12.12;77.48
21980;BME280;11154;48.558;9.234;2023-03-21T05:46:14;97647.34;;;12.12;78.34
21980;BME280;11154;48.558;9.234;2023-03-21T05:48:16;97635.50;;;12.14;78.89
21980;BME280;11154;48.558;9.234;2023-03-21T05:50:18;97643.50;;;12.14;78.58
21980;BME280;11154;48.558;9.234;2023-03-21T05:52:20;97635.00;;;12.11;78.68
21980;BME280;11154;48.558;9.234;2023-03-21T05:54:23;97644.00;;;12.10;78.24
21980;BME280;11154;48.558;9.234;2023-03-21T05:56:24;97642.31;;;12.09;78.38
21980;BME280;11154;48.558;9.234;2023-03-21T05:58:26;97648.69;;;12.08;78.16
21980;BME280;11154;48.558;9.234;2023-03-21T06:00:28;97637.66;;;12.11;77.97
21980;BME280;11154;48.558;9.234;2023-03-21T06:02:29;97644.66;;;12.12;77.98
21980;BME280;11154;48.558;9.234;2023-03-21T06:04:31;97640.34;;;12.11;78.35
21980;BME280;11154;48.558;9.234;2023-03-21T06:06:33;97632.00;;;12.14;78.89
21980;BME280;11154;48.558;9.234;2023-03-21T06:08:34;97631.97;;;12.22;81.69
21980;BME280;11154;48.558;9.234;2023-03-21T06:10:37;97640.50;;;12.17;79.36
21980;BME280;11154;48.558;9.234;2023-03-21T06:12:39;97630.16;;;12.14;78.64
21980;BME280;11154;48.558;9.234;2023-03-21T06:14:42;97641.81;;;12.13;78.19
21980;BME280;11154;48.558;9.234;2023-03-21T06:16:44;97642.00;;;12.12;77.73
21980;BME280;11154;48.558;9.234;2023-03-21T06:18:45;97638.34;;;12.13;78.14
21980;BME280;11154;48.558;9.234;2023-03-21T06:20:47;97640.00;;;12.14;77.66
21980;BME280;11154;48.558;9.234;2023-03-21T06:22:48;97637.00;;;12.17;77.50
21980;BME280;11154;48.558;9.234;2023-03-21T06:24:50;97639.66;;;12.17;77.12
21980;BME280;11154;48.558;9.234;2023-03-21T06:26:53;97640.16;;;12.12;77.45
21980;BME280;11154;48.558;9.234;2023-03-21T06:28:55;97636.31;;;12.15;77.02
21980;BME280;11154;48.558;9.234;2023-03-21T06:30:56;97640.34;;;12.19;77.54
21980;BME280;11154;48.558;9.234;2023-03-21T06:32:58;97635.63;;;12.21;77.46
21980;BME280;11154;48.558;9.234;2023-03-21T06:35:00;97635.31;;;12.23;77.28
21980;BME280;11154;48.558;9.234;2023-03-21T06:37:01;97637.97;;;12.23;76.93
21980;BME280;11154;48.558;9.234;2023-03-21T06:39:03;97624.34;;;12.26;77.16
21980;BME280;11154;48.558;9.234;2023-03-21T06:41:06;97623.31;;;12.27;77.70
21980;BME280;11154;48.558;9.234;2023-03-21T06:43:09;97626.81;;;12.28;77.56
21980;BME280;11154;48.558;9.234;2023-03-21T06:45:11;97624.47;;;12.33;77.57
21980;BME280;11154;48.558;9.234;2023-03-21T06:47:13;97631.47;;;12.34;76.84
21980;BME280;11154;48.558;9.234;2023-03-21T06:49:15;97637.47;;;12.36;77.19
21980;BME280;11154;48.558;9.234;2023-03-21T06:51:16;97633.47;;;12.40;76.21
21980;BME280;11154;48.558;9.234;2023-03-21T06:53:19;97633.59;;;12.46;76.75
21980;BME280;11154;48.558;9.234;2023-03-21T06:55:23;97630.59;;;12.49;76.60
21980;BME280;11154;48.558;9.234;2023-03-21T06:57:26;97629.91;;;12.55;77.29
21980;BME280;11154;48.558;9.234;2023-03-21T06:59:29;97632.66;;;12.86;85.44
21980;BME280;11154;48.558;9.234;2023-03-21T07:01:30;97625.56;;;12.70;79.33
21980;BME280;11154;48.558;9.234;2023-03-21T07:03:32;97625.22;;;12.65;77.57
21980;BME280;11154;48.558;9.234;2023-03-21T07:05:34;97625.75;;;12.61;77.61
21980;BME280;11154;48.558;9.234;2023-03-21T07:07:36;97628.41;;;12.61;77.42
21980;BME280;11154;48.558;9.234;2023-03-21T07:09:39;97629.22;;;12.61;77.14
21980;BME280;11154;48.558;9.234;2023-03-21T07:11:40;97631.22;;;12.59;76.45
21980;BME280;11154;48.558;9.234;2023-03-21T07:13:42;97627.22;;;12.63;76.64
21980;BME280;11154;48.558;9.234;2023-03-21T07:15:45;97637.88;;;12.71;76.38
21980;BME280;11154;48.558;9.234;2023-03-21T07:17:47;97629.53;;;12.74;75.89
21980;BME280;11154;48.558;9.234;2023-03-21T07:19:48;97631.81;;;12.85;75.93
21980;BME280;11154;48.558;9.234;2023-03-21T07:21:50;97628.47;;;12.91;75.20
21980;BME280;11154;48.558;9.234;2023-03-21T07:23:51;97631.00;;;12.93;75.69
21980;BME280;11154;48.558;9.234;2023-03-21T07:25:53;97627.78;;;12.97;75.95
21980;BME280;11154;48.558;9.234;2023-03-21T07:27:55;97637.13;;;13.01;77.26
21980;BME280;11154;48.558;9.234;2023-03-21T07:29:57;97628.13;;;13.02;76.46
21980;BME280;11154;48.558;9.234;2023-03-21T07:32:00;97632.28;;;13.04;76.26
21980;BME280;11154;48.558;9.234;2023-03-21T07:34:01;97630.59;;;13.03;76.19
21980;BME280;11154;48.558;9.234;2023-03-21T07:36:08;97630.03;;;13.16;78.60
21980;BME280;11154;48.558;9.234;2023-03-21T07:38:11;97629.22;;;13.15;77.02
21980;BME280;11154;48.558;9.234;2023-03-21T07:40:16;97629.50;;;13.20;77.35
21980;BME280;11154;48.558;9.234;2023-03-21T07:42:18;97629.00;;;13.25;75.94
21980;BME280;11154;48.558;9.234;2023-03-21T07:44:20;97628.00;;;13.26;75.97
21980;BME280;11154;48.558;9.234;2023-03-21T07:46:22;97623.94;;;13.30;77.37
21980;BME280;11154;48.558;9.234;2023-03-21T07:48:25;97630.25;;;13.37;77.31
21980;BME280;11154;48.558;9.234;2023-03-21T07:50:26;97633.94;;;13.36;76.73
21980;BME280;11154;48.558;9.234;2023-03-21T07:52:28;97626.53;;;13.46;77.22
21980;BME280;11154;48.558;9.234;2023-03-21T07:54:30;97623.50;;;13.49;77.26
21980;BME280;11154;48.558;9.234;2023-03-21T07:56:31;97627.13;;;13.56;76.61
21980;BME280;11154;48.558;9.234;2023-03-21T07:58:33;97618.41;;;13.62;76.51
21980;BME280;11154;48.558;9.234;2023-03-21T08:00:35;97626.94;;;13.57;74.67
21980;BME280;11154;48.558;9.234;2023-03-21T08:02:36;97617.78;;;13.60;75.58
21980;BME280;11154;48.558;9.234;2023-03-21T08:04:39;97621.56;;;13.65;76.24
21980;BME280;11154;48.558;9.234;2023-03-21T08:06:41;97618.94;;;13.79;77.13
21980;BME280;11154;48.558;9.234;2023-03-21T08:08:43;97618.25;;;13.85;75.83
21980;BME280;11154;48.558;9.234;2023-03-21T08:10:44;97620.00;;;13.93;75.71
21980;BME280;11154;48.558;9.234;2023-03-21T08:12:46;97614.75;;;13.99;75.42
21980;BME280;11154;48.558;9.234;2023-03-21T08:14:48;97614.88;;;14.06;75.10
21980;BME280;11154;48.558;9.234;2023-03-21T08:16:50;97608.53;;;14.07;73.58
21980;BME280;11154;48.558;9.234;2023-03-21T08:18:51;97609.84;;;14.11;75.30
21980;BME280;11154;48.558;9.234;2023-03-21T08:20:56;97601.34;;;14.07;73.65
21980;BME280;11154;48.558;9.234;2023-03-21T08:22:58;97604.66;;;14.09;73.15
21980;BME280;11154;48.558;9.234;2023-03-21T08:24:59;97598.72;;;14.22;75.55
21980;BME280;11154;48.558;9.234;2023-03-21T08:27:02;97593.56;;;14.20;73.11
21980;BME280;11154;48.558;9.234;2023-03-21T08:29:03;97602.31;;;14.14;72.13
21980;BME280;11154;48.558;9.234;2023-03-21T08:31:06;97588.63;;;14.09;72.59
21980;BME280;11154;48.558;9.234;2023-03-21T08:33:08;97590.59;;;14.15;72.91
21980;BME280;11154;48.558;9.234;2023-03-21T08:35:11;97591.47;;;14.30;74.95
21980;BME280;11154;48.558;9.234;2023-03-21T08:37:16;97593.69;;;14.41;75.12
21980;BME280;11154;48.558;9.234;2023-03-21T08:39:18;97590.81;;;14.43;72.66
21980;BME280;11154;48.558;9.234;2023-03-21T08:41:21;97592.28;;;14.45;72.22
21980;BME280;11154;48.558;9.234;2023-03-21T08:43:23;97588.41;;;14.47;72.61
21980;BME280;11154;48.558;9.234;2023-03-21T08:45:25;97590.94;;;14.49;70.39
21980;BME280;11154;48.558;9.234;2023-03-21T08:47:27;97586.03;;;14.67;72.86
21980;BME280;11154;48.558;9.234;2023-03-21T08:49:28;97586.38;;;14.78;71.92
21980;BME280;11154;48.558;9.234;2023-03-21T08:51:30;97578.72;;;14.90;70.54
21980;BME280;11154;48.558;9.234;2023-03-21T08:53:34;97581.09;;;14.99;70.42
21980;BME280;11154;48.558;9.234;2023-03-21T08:55:36;97584.88;;;15.05;70.13
21980;BME280;11154;48.558;9.234;2023-03-21T08:57:37;97577.31;;;15.08;68.76
21980;BME280;11154;48.558;9.234;2023-03-21T08:59:39;97578.03;;;15.16;68.62
21980;BME280;11154;48.558;9.234;2023-03-21T09:01:41;97574.94;;;15.19;67.25
21980;BME280;11154;48.558;9.234;2023-03-21T09:03:42;97576.28;;;15.23;66.31
21980;BME280;11154;48.558;9.234;2023-03-21T09:05:44;97574.31;;;15.32;68.80
21980;BME280;11154;48.558;9.234;2023-03-21T09:07:46;97579.13;;;15.36;65.69
21980;BME280;11154;48.558;9.234;2023-03-21T09:09:50;97576.94;;;15.46;62.71
21980;BME280;11154;48.558;9.234;2023-03-21T09:11:52;97568.09;;;15.46;62.58
21980;BME280;11154;48.558;9.234;2023-03-21T09:13:54;97580.63;;;15.45;61.11
21980;BME280;11154;48.558;9.234;2023-03-21T09:15:56;97576.50;;;15.43;60.59
21980;BME280;11154;48.558;9.234;2023-03-21T09:18:00;97574.97;;;15.55;63.28
21980;BME280;11154;48.558;9.234;2023-03-21T09:20:14;97577.53;;;15.63;62.41
21980;BME280;11154;48.558;9.234;2023-03-21T09:22:17;97577.72;;;15.61;57.77
21980;BME280;11154;48.558;9.234;2023-03-21T09:24:20;97574.16;;;15.75;59.28
21980;BME280;11154;48.558;9.234;2023-03-21T09:26:24;97575.88;;;15.83;59.59
21980;BME280;11154;48.558;9.234;2023-03-21T09:28:27;97573.06;;;15.90;59.65
21980;BME280;11154;48.558;9.234;2023-03-21T09:30:28;97569.19;;;15.99;59.77
21980;BME280;11154;48.558;9.234;2023-03-21T09:32:30;97570.66;;;16.02;56.62
21980;BME280;11154;48.558;9.234;2023-03-21T09:34:33;97572.66;;;15.93;56.02
21980;BME280;11154;48.558;9.234;2023-03-21T09:36:36;97565.94;;;16.04;59.54
21980;BME280;11154;48.558;9.234;2023-03-21T09:38:38;97567.59;;;16.05;58.39
21980;BME280;11154;48.558;9.234;2023-03-21T09:40:50;97569.28;;;16.06;56.72
21980;BME280;11154;48.558;9.234;2023-03-21T09:43:03;97567.03;;;16.09;57.94
21980;BME280;11154;48.558;9.234;2023-03-21T09:45:11;97570.44;;;16.24;57.71
21980;BME280;11154;48.558;9.234;2023-03-21T09:47:19;97566.81;;;16.32;55.69
21980;BME280;11154;48.558;9.234;2023-03-21T09:49:26;97563.13;;;16.33;54.81
21980;BME280;11154;48.558;9.234;2023-03-21T09:51:33;97558.44;;;16.41;56.13
21980;BME280;11154;48.558;9.234;2023-03-21T09:53:40;97561.72;;;16.43;55.05
21980;BME280;11154;48.558;9.234;2023-03-21T09:55:44;97552.28;;;16.47;55.14
21980;BME280;11154;48.558;9.234;2023-03-21T09:57:49;97559.31;;;16.48;55.09
21980;BME280;11154;48.558;9.234;2023-03-21T09:59:55;97544.44;;;16.52;57.48
21980;BME280;11154;48.558;9.234;2023-03-21T10:01:58;97550.88;;;16.58;57.80
21980;BME280;11154;48.558;9.234;2023-03-21T10:04:02;97548.81;;;16.60;56.92
21980;BME280;11154;48.558;9.234;2023-03-21T10:06:10;97542.84;;;16.64;55.90
21980;BME280;11154;48.558;9.234;2023-03-21T10:08:17;97541.63;;;16.66;55.90
21980;BME280;11154;48.558;9.234;2023-03-21T10:10:24;97536.75;;;16.76;56.80
21980;BME280;11154;48.558;9.234;2023-03-21T10:12:27;97534.88;;;16.77;54.96
21980;BME280;11154;48.558;9.234;2023-03-21T10:14:33;97535.06;;;16.75;54.28
21980;BME280;11154;48.558;9.234;2023-03-21T10:16:41;97534.22;;;16.68;51.47
21980;BME280;11154;48.558;9.234;2023-03-21T10:18:44;97530.50;;;16.69;54.00
21980;BME280;11154;48.558;9.234;2023-03-21T10:20:46;97528.03;;;16.74;57.03
21980;BME280;11154;48.558;9.234;2023-03-21T10:22:49;97531.16;;;16.78;55.36
21980;BME280;11154;48.558;9.234;2023-03-21T10:24:52;97522.94;;;16.86;57.65
21980;BME280;11154;48.558;9.234;2023-03-21T10:26:55;97530.59;;;16.89;55.19
21980;BME280;11154;48.558;9.234;2023-03-21T10:28:58;97526.88;;;16.90;54.26
21980;BME280;11154;48.558;9.234;2023-03-21T10:31:03;97519.84;;;16.89;54.15
21980;BME280;11154;48.558;9.234;2023-03-21T10:33:12;97521.94;;;16.93;53.34
21980;BME280;11154;48.558;9.234;2023-03-21T10:35:14;97518.22;;;16.94;54.91
21980;BME280;11154;48.558;9.234;2023-03-21T10:37:16;97514.03;;;16.85;51.39
21980;BME280;11154;48.558;9.234;2023-03-21T10:39:25;97520.22;;;16.79;51.90
21980;BME280;11154;48.558;9.234;2023-03-21T10:41:27;97525.63;;;16.86;54.23
21980;BME280;11154;48.558;9.234;2023-03-21T10:43:32;97519.44;;;16.92;54.92
21980;BME280;11154;48.558;9.234;2023-03-21T10:45:34;97521.94;;;16.93;51.93
21980;BME280;11154;48.558;9.234;2023-03-21T10:47:36;97519.06;;;17.01;56.99
21980;BME280;11154;48.558;9.234;2023-03-21T10:49:39;97510.38;;;16.99;52.14
21980;BME280;11154;48.558;9.234;2023-03-21T10:51:41;97517.84;;;17.04;53.90
21980;BME280;11154;48.558;9.234;2023-03-21T10:53:45;97516.75;;;16.92;50.80
21980;BME280;11154;48.558;9.234;2023-03-21T10:55:53;97518.59;;;16.91;53.00
21980;BME280;11154;48.558;9.234;2023-03-21T10:57:59;97506.84;;;16.92;53.19
21980;BME280;11154;48.558;9.234;2023-03-21T11:00:04;97524.03;;;16.98;52.84
21980;BME280;11154;48.558;9.234;2023-03-21T11:02:17;97518.66;;;16.98;52.81